메인 페이지
METAR-TAF:

METAR-TAF

공항 :

와가두구, 부르키나파소

위도: 12-21N, 경도: 001-31W, 고도: 316m

현재 날씨관측

예보는 51분 전, 05:00시(UTC)에 발표되었습니다.
서남서2kt
온도 25°C
습도 89%
기압 1013 hPa
시정 10km 이상
고도 2000ft 상공 구름 조금

METAR: DFFD 230500Z 24002KT 9999 FEW020 25/23 Q1013 NOSIG

시각: 05:51 (05:51 UTC)

예보

예보는 51분 전, 05:00시(UTC)에 발표되었습니다.
예보 대상 시간: 23일 06시부터 24일 12시까지 (UTC)
서남서8kt
시정 10km 이상
고도 2000ft 상공 구름 보통
일시적
23일 15시부터 23일 22시까지 (UTC)
시정: 4000m
고도 2000ft 상공 구름 보통
고도 3300ft 상공 구름 조금, 적란운.

TAF: DFFD 230500Z 2306/2412 24008KT 9999 SCT020 TEMPO 2315/2322 4000 TSSHRA SCT020 FEW033CB

4,000개 이상의 공항 관측 자료 및 예보 (METAR 및 TAF 보고).

지도상에서 검색 가능한 기상관측소가 노란 점과 빨간 점으로 표시되어 있습니다.

기상관측소 명을 보려면 표시 위로 마우스를 이동하세요.

날씨 관측과 예보를 보려면 클릭하세요.

지도 변경 : 확대하려면 엑스 표시가 있는 녹색 버튼, 축소하려면 빼기 표시가 있는 녹색 버튼, 다음 페이지의 지도를 보려면 녹색 화살표를 클릭하세요.


METAR-TAF: